createdAt,value
2023-02-06T00:01:38.693Z,96.35
2023-02-06T00:04:06.017Z,91.75
2023-02-06T00:06:33.463Z,82.40
2023-02-06T00:09:01.027Z,73.30
2023-02-06T00:11:30.752Z,60.90
2023-02-06T00:13:58.340Z,58.63
2023-02-06T00:16:30.998Z,56.28
2023-02-06T00:19:03.606Z,58.00
2023-02-06T00:21:33.608Z,60.25
2023-02-06T00:24:02.368Z,61.92
2023-02-06T00:26:32.570Z,61.10
2023-02-06T00:29:02.399Z,61.13
2023-02-06T00:31:29.656Z,65.53
2023-02-06T00:33:57.188Z,65.00
2023-02-06T00:36:24.283Z,65.43
2023-02-06T00:38:51.623Z,67.70
2023-02-06T00:41:21.074Z,65.75
2023-02-06T00:43:50.902Z,65.25
2023-02-06T00:46:17.968Z,65.55
2023-02-06T00:48:45.305Z,64.65
2023-02-06T00:51:12.352Z,64.47
2023-02-06T00:53:39.662Z,62.95
2023-02-06T00:56:06.917Z,53.75
2023-02-06T00:58:34.298Z,49.35
2023-02-06T01:01:03.635Z,46.90
2023-02-06T01:03:31.005Z,45.03
2023-02-06T01:06:00.579Z,44.08
2023-02-06T01:08:28.751Z,44.53
2023-02-06T01:10:55.862Z,44.13
2023-02-06T01:13:23.271Z,46.92
2023-02-06T01:15:51.260Z,48.00
2023-02-06T01:18:18.771Z,50.60
2023-02-06T01:20:45.795Z,53.58
2023-02-06T01:23:13.119Z,59.97
2023-02-06T01:25:40.151Z,61.05
2023-02-06T01:28:09.742Z,59.80
2023-02-06T01:30:39.319Z,60.83
2023-02-06T01:33:06.683Z,61.22
2023-02-06T01:35:36.550Z,54.80
2023-02-06T01:38:06.381Z,55.33
2023-02-06T01:40:33.474Z,51.83
2023-02-06T01:43:00.814Z,43.00
2023-02-06T01:45:41.323Z,37.65
2023-02-06T01:48:18.872Z,34.70
2023-02-06T01:50:51.104Z,39.40
2023-02-06T01:53:22.066Z,39.60
2023-02-06T01:55:50.966Z,38.63
2023-02-06T01:58:26.397Z,37.95
2023-02-06T02:00:53.778Z,36.40
2023-02-06T02:03:24.676Z,36.42
2023-02-06T02:05:53.802Z,34.42
2023-02-06T02:08:38.822Z,34.20
2023-02-06T02:11:10.221Z,33.28
2023-02-06T02:13:38.993Z,36.03
2023-02-06T02:16:41.630Z,36.53
2023-02-06T02:19:15.184Z,32.75
2023-02-06T02:22:16.278Z,32.88
2023-02-06T02:25:13.680Z,33.40
2023-02-06T02:28:11.288Z,35.90
2023-02-06T02:30:44.473Z,36.05
2023-02-06T02:33:17.088Z,35.72
2023-02-06T02:35:56.299Z,37.35
2023-02-06T02:38:23.312Z,39.33
2023-02-06T02:41:03.172Z,39.83
2023-02-06T02:44:02.344Z,39.35
2023-02-06T02:46:33.499Z,40.47
2023-02-06T02:49:17.115Z,41.22
2023-02-06T02:51:46.636Z,38.33
2023-02-06T02:54:14.033Z,34.88
2023-02-06T02:56:42.256Z,32.88
2023-02-06T02:59:32.663Z,31.65
2023-02-06T03:02:09.726Z,30.90
2023-02-06T03:04:59.261Z,32.25
2023-02-06T03:07:49.617Z,31.48
2023-02-06T03:10:48.323Z,32.22
2023-02-06T03:13:41.671Z,31.48
2023-02-06T03:16:36.188Z,32.00
2023-02-06T03:19:33.034Z,33.08
2023-02-06T03:22:05.336Z,34.03
2023-02-06T03:24:39.314Z,35.00
2023-02-06T03:27:15.927Z,34.08
2023-02-06T03:29:44.836Z,35.72
2023-02-06T03:32:22.799Z,37.97
2023-02-06T03:35:04.993Z,40.20
2023-02-06T03:37:35.416Z,40.85
2023-02-06T03:40:04.542Z,38.40
2023-02-06T03:42:34.187Z,37.60
2023-02-06T03:45:07.876Z,37.20
2023-02-06T03:47:38.192Z,36.55
2023-02-06T03:50:07.450Z,37.58
2023-02-06T03:52:39.767Z,39.42
2023-02-06T03:55:17.419Z,37.53
2023-02-06T03:57:47.742Z,34.72
2023-02-06T04:03:03.543Z,35.15
2023-02-06T04:05:33.378Z,35.10
2023-02-06T04:08:00.636Z,34.60
2023-02-06T04:10:27.993Z,31.42
2023-02-06T04:12:57.418Z,32.25
2023-02-06T04:15:24.796Z,33.22
2023-02-06T04:17:59.874Z,35.22
2023-02-06T04:20:28.348Z,34.55
2023-02-06T04:22:57.789Z,36.05
2023-02-06T04:25:27.893Z,33.80
2023-02-06T04:27:54.976Z,33.78
2023-02-06T04:30:22.392Z,34.63
2023-02-06T04:32:54.016Z,33.25
2023-02-06T04:35:21.423Z,32.88
2023-02-06T04:37:48.466Z,36.30
2023-02-06T04:40:16.181Z,36.03
2023-02-06T04:42:43.228Z,33.88
2023-02-06T04:45:13.153Z,37.63
2023-02-06T04:47:40.205Z,34.88
2023-02-06T04:50:10.035Z,40.42
2023-02-06T04:52:39.486Z,43.15
2023-02-06T04:55:07.248Z,45.28
2023-02-06T04:57:36.830Z,45.28
2023-02-06T05:00:06.493Z,43.67
2023-02-06T05:02:35.818Z,37.70
2023-02-06T05:05:06.867Z,33.70
2023-02-06T05:07:34.537Z,34.17
2023-02-06T05:10:04.897Z,33.95
2023-02-06T05:12:34.424Z,30.67
2023-02-06T05:15:01.776Z,29.40
2023-02-06T05:17:31.364Z,29.02
2023-02-06T05:20:01.027Z,29.13
2023-02-06T05:22:28.192Z,29.45
2023-02-06T05:24:58.036Z,27.75
2023-02-06T05:27:25.122Z,28.55
2023-02-06T05:29:54.716Z,28.23
2023-02-06T05:32:24.264Z,28.27
2023-02-06T05:34:53.849Z,27.27
2023-02-06T05:37:20.877Z,28.00
2023-02-06T05:39:50.714Z,30.77
2023-02-06T05:42:17.761Z,28.63
2023-02-06T05:44:45.146Z,29.77
2023-02-06T05:47:12.208Z,31.33
2023-02-06T05:49:39.621Z,29.30
2023-02-06T05:52:11.137Z,29.50
2023-02-06T05:54:38.475Z,29.17
2023-02-06T05:57:05.601Z,27.70
2023-02-06T05:59:33.012Z,30.67
2023-02-06T06:02:00.342Z,31.23
2023-02-06T06:04:27.796Z,30.70
2023-02-06T06:06:54.927Z,32.75
2023-02-06T06:09:24.789Z,30.50
2023-02-06T06:11:51.805Z,29.98
2023-02-06T06:14:19.192Z,32.15
2023-02-06T06:16:46.254Z,32.13
2023-02-06T06:19:13.618Z,29.20
2023-02-06T06:21:40.671Z,31.38
2023-02-06T06:24:08.153Z,30.88
2023-02-06T06:26:37.721Z,31.33
2023-02-06T06:29:05.387Z,28.98
2023-02-06T06:31:32.538Z,30.33
2023-02-06T06:34:00.044Z,30.10
2023-02-06T06:36:27.078Z,30.75
2023-02-06T06:38:56.964Z,30.55
2023-02-06T06:41:24.001Z,32.72
2023-02-06T06:43:54.397Z,34.50
2023-02-06T06:46:21.455Z,35.40
2023-02-06T06:48:48.972Z,35.05
2023-02-06T06:51:16.138Z,34.92
2023-02-06T06:53:45.793Z,35.38
2023-02-06T06:56:14.832Z,33.05
2023-02-06T06:58:42.617Z,36.20
2023-02-06T07:01:09.818Z,38.72
2023-02-06T07:03:37.232Z,36.28
2023-02-06T07:06:06.808Z,36.53
2023-02-06T07:08:34.190Z,36.78
2023-02-06T07:11:01.261Z,30.75
2023-02-06T07:13:33.133Z,30.40
2023-02-06T07:16:00.206Z,29.60
2023-02-06T07:18:27.583Z,29.10
2023-02-06T07:20:54.729Z,28.50
2023-02-06T07:23:22.088Z,41.53
2023-02-06T07:25:52.242Z,44.13
2023-02-06T07:28:19.579Z,27.63
2023-02-06T07:30:46.623Z,26.60
2023-02-06T07:33:13.946Z,25.45
2023-02-06T07:35:43.526Z,23.13
2023-02-06T07:38:10.809Z,23.17
2023-02-06T07:40:44.947Z,22.67
2023-02-06T07:43:13.678Z,23.65
2023-02-06T07:45:41.046Z,22.88
2023-02-06T07:48:08.688Z,20.63
2023-02-06T07:50:38.438Z,25.05
2023-02-06T07:53:05.804Z,24.30
2023-02-06T07:55:36.583Z,27.35
2023-02-06T07:58:04.604Z,26.50
2023-02-06T08:00:34.134Z,29.45
2023-02-06T08:03:01.548Z,31.83
2023-02-06T08:05:28.873Z,33.55
2023-02-06T08:07:56.208Z,34.13
2023-02-06T08:10:28.539Z,37.72
2023-02-06T08:12:58.069Z,37.75
2023-02-06T08:15:27.612Z,39.40
2023-02-06T08:17:54.969Z,40.85
2023-02-06T08:20:22.016Z,42.50
2023-02-06T08:22:49.484Z,47.22
2023-02-06T08:25:16.634Z,44.28
2023-02-06T08:27:44.025Z,45.78
2023-02-06T08:30:12.013Z,46.95
2023-02-06T08:32:39.503Z,45.13
2023-02-06T08:35:06.817Z,42.97
2023-02-06T08:37:34.178Z,42.83
2023-02-06T08:40:01.239Z,43.83
2023-02-06T08:42:31.038Z,45.33
2023-02-06T08:45:00.536Z,44.65
2023-02-06T08:47:27.917Z,44.80
2023-02-06T08:49:57.408Z,43.88
2023-02-06T08:52:24.777Z,42.25
2023-02-06T08:54:54.443Z,43.67
2023-02-06T08:57:24.401Z,46.55
2023-02-06T08:59:51.435Z,47.47
2023-02-06T09:02:18.844Z,42.90
2023-02-06T09:04:47.074Z,36.17
2023-02-06T09:07:17.418Z,32.30
2023-02-06T09:09:44.475Z,31.95
2023-02-06T09:12:15.124Z,29.83
2023-02-06T09:14:46.715Z,27.85
2023-02-06T09:17:14.147Z,28.23
2023-02-06T09:19:41.384Z,29.10
2023-02-06T09:22:08.737Z,27.55
2023-02-06T09:24:35.787Z,24.25
2023-02-06T09:27:03.147Z,20.98
2023-02-06T09:29:30.826Z,20.05
2023-02-06T09:31:58.254Z,20.95
2023-02-06T09:34:25.803Z,15.95
2023-02-06T09:36:53.478Z,17.10
2023-02-06T09:39:20.667Z,18.52
2023-02-06T09:41:51.669Z,15.23
2023-02-06T09:44:29.469Z,13.40
2023-02-06T09:47:26.676Z,9.93
2023-02-06T09:50:03.926Z,8.85
2023-02-06T09:53:00.779Z,10.45
2023-02-06T09:55:47.681Z,9.18
2023-02-06T09:58:42.260Z,10.38
2023-02-06T10:01:19.275Z,12.13
2023-02-06T10:04:24.524Z,14.00
2023-02-06T10:07:19.690Z,15.75
2023-02-06T10:09:54.130Z,15.13
2023-02-06T10:12:45.943Z,18.45
2023-02-06T10:15:25.037Z,14.60
2023-02-06T10:18:17.758Z,12.02
2023-02-06T10:20:58.539Z,12.93
2023-02-06T10:23:47.738Z,14.93
2023-02-06T10:26:19.212Z,15.63
2023-02-06T10:28:55.529Z,14.15
2023-02-06T10:31:44.280Z,11.68
2023-02-06T10:34:26.709Z,11.32
2023-02-06T10:37:15.701Z,14.45
2023-02-06T10:39:54.554Z,12.65
2023-02-06T10:42:50.095Z,11.90
2023-02-06T10:45:21.908Z,12.80
2023-02-06T10:48:01.337Z,15.55
2023-02-06T10:50:37.422Z,12.75
2023-02-06T10:53:17.674Z,11.38
2023-02-06T10:55:56.085Z,11.48
2023-02-06T10:58:35.225Z,9.80
2023-02-06T11:01:20.083Z,8.65
2023-02-06T11:04:03.612Z,7.88
2023-02-06T11:06:33.427Z,7.25
2023-02-06T11:09:03.926Z,9.40
2023-02-06T11:11:36.892Z,8.40
2023-02-06T11:14:19.007Z,9.38
2023-02-06T11:16:49.055Z,9.10
2023-02-06T11:19:26.847Z,8.50
2023-02-06T11:22:12.734Z,9.35
2023-02-06T11:24:59.787Z,7.40
2023-02-06T11:27:28.196Z,8.15
2023-02-06T11:30:01.748Z,8.20
2023-02-06T11:32:45.025Z,9.05
2023-02-06T11:35:46.171Z,8.80
2023-02-06T11:38:24.519Z,9.80
2023-02-06T11:40:56.672Z,10.02
2023-02-06T11:43:42.104Z,10.82
2023-02-06T11:46:28.630Z,9.98
2023-02-06T11:48:55.651Z,8.48
2023-02-06T11:51:24.738Z,8.68
2023-02-06T11:54:03.150Z,8.25
2023-02-06T11:56:31.825Z,7.30
2023-02-06T11:59:14.685Z,8.10
2023-02-06T12:01:44.853Z,7.47
2023-02-06T12:04:40.645Z,6.70
2023-02-06T12:07:16.295Z,7.85
2023-02-06T12:09:43.582Z,8.82
2023-02-06T12:12:28.367Z,8.35
2023-02-06T12:15:36.152Z,9.82
2023-02-06T12:18:23.741Z,9.68
2023-02-06T12:20:59.524Z,10.32
2023-02-06T12:24:01.169Z,9.75
2023-02-06T12:26:33.898Z,9.23
2023-02-06T12:29:22.449Z,9.35
2023-02-06T12:32:23.331Z,9.38
2023-02-06T12:35:22.871Z,8.70
2023-02-06T12:37:57.053Z,8.38
2023-02-06T12:40:27.083Z,9.38
2023-02-06T12:43:02.977Z,9.45
2023-02-06T12:45:55.356Z,9.55
2023-02-06T12:48:22.523Z,8.27
2023-02-06T12:51:19.673Z,10.02
2023-02-06T12:54:12.967Z,9.70
2023-02-06T12:56:50.332Z,9.60
2023-02-06T12:59:38.534Z,8.07
2023-02-06T13:02:54.070Z,7.63
2023-02-06T13:05:35.936Z,9.90
2023-02-06T13:08:14.132Z,8.98
2023-02-06T13:10:44.270Z,9.27
2023-02-06T13:13:30.620Z,8.90
2023-02-06T13:15:58.714Z,11.45
2023-02-06T13:18:41.489Z,9.98
2023-02-06T13:21:26.740Z,9.18
2023-02-06T13:24:03.123Z,8.98
2023-02-06T13:26:46.005Z,9.68
2023-02-06T13:29:22.321Z,9.27
2023-02-06T13:31:49.469Z,9.07
2023-02-06T13:34:18.445Z,10.85
2023-02-06T13:36:47.232Z,10.23
2023-02-06T13:39:22.703Z,8.55
2023-02-06T13:41:52.251Z,9.80
2023-02-06T13:44:32.247Z,9.68
2023-02-06T13:47:28.481Z,10.52
2023-02-06T13:50:24.559Z,8.80
2023-02-06T13:53:26.544Z,9.88
2023-02-06T13:56:09.397Z,9.77
2023-02-06T13:58:38.668Z,9.80
2023-02-06T14:01:18.391Z,9.68
2023-02-06T14:03:53.021Z,10.65
2023-02-06T14:07:00.226Z,9.70
2023-02-06T14:09:59.381Z,12.45
2023-02-06T14:12:41.599Z,11.20
2023-02-06T14:15:44.112Z,11.07
2023-02-06T14:18:40.275Z,11.27
2023-02-06T14:21:21.430Z,10.52
2023-02-06T14:23:51.522Z,10.52
2023-02-06T14:26:35.206Z,11.38
2023-02-06T14:29:36.318Z,11.52
2023-02-06T14:32:41.588Z,10.48
2023-02-06T14:35:14.927Z,12.20
2023-02-06T14:38:02.073Z,11.23
2023-02-06T14:40:34.443Z,11.00
2023-02-06T14:43:07.832Z,11.25
2023-02-06T14:45:42.398Z,11.07
2023-02-06T14:48:35.936Z,10.80
2023-02-06T14:51:06.620Z,12.98
2023-02-06T14:53:37.538Z,10.85
2023-02-06T14:56:24.289Z,11.30
2023-02-06T14:58:51.516Z,13.00
2023-02-06T15:01:18.968Z,11.52
2023-02-06T15:03:48.231Z,11.85
2023-02-06T15:06:36.152Z,12.15
2023-02-06T15:09:03.453Z,11.65
2023-02-06T15:11:34.268Z,13.60
2023-02-06T15:14:04.786Z,12.43
2023-02-06T15:16:48.763Z,12.63
2023-02-06T15:19:22.297Z,12.43
2023-02-06T15:21:52.463Z,12.73
2023-02-06T15:24:31.688Z,13.75
2023-02-06T15:27:06.074Z,13.07
2023-02-06T15:29:33.340Z,10.98
2023-02-06T15:32:06.616Z,12.35
2023-02-06T15:34:36.696Z,12.50
2023-02-06T15:37:20.625Z,12.65
2023-02-06T15:39:50.886Z,12.70
2023-02-06T15:42:22.115Z,13.02
2023-02-06T15:44:50.101Z,13.18
2023-02-06T15:47:19.211Z,14.35
2023-02-06T15:49:50.456Z,13.25
2023-02-06T15:52:36.577Z,12.55
2023-02-06T15:55:03.947Z,14.60
2023-02-06T15:57:39.734Z,15.20
2023-02-06T16:00:19.065Z,14.18
2023-02-06T16:02:46.561Z,14.27
2023-02-06T16:05:33.812Z,15.15
2023-02-06T16:08:03.160Z,16.55
2023-02-06T16:10:39.666Z,14.60
2023-02-06T16:13:16.167Z,15.15
2023-02-06T16:16:07.847Z,16.55
2023-02-06T16:18:40.070Z,16.27
2023-02-06T16:21:16.210Z,16.65
2023-02-06T16:23:59.977Z,16.00
2023-02-06T16:26:39.746Z,14.48
2023-02-06T16:29:10.111Z,16.15
2023-02-06T16:31:40.791Z,16.65
2023-02-06T16:34:32.554Z,17.45
2023-02-06T16:37:02.281Z,20.17
2023-02-06T16:39:31.852Z,18.40
2023-02-06T16:41:58.985Z,18.48
2023-02-06T16:44:36.112Z,19.25
2023-02-06T16:47:17.987Z,19.15
2023-02-06T16:49:46.154Z,19.33
2023-02-06T16:52:19.437Z,20.02
2023-02-06T16:54:47.584Z,20.38
2023-02-06T16:57:31.961Z,19.95
2023-02-06T16:59:59.630Z,21.52
2023-02-06T17:02:27.507Z,23.60
2023-02-06T17:04:55.517Z,20.70
2023-02-06T17:07:27.635Z,21.00
2023-02-06T17:09:59.437Z,21.75
2023-02-06T17:12:26.560Z,23.52
2023-02-06T17:14:54.299Z,24.77
2023-02-06T17:17:24.877Z,24.88
2023-02-06T17:19:52.724Z,25.52
2023-02-06T17:22:20.589Z,24.90
2023-02-06T17:24:47.964Z,29.17
2023-02-06T17:27:22.666Z,27.50
2023-02-06T17:29:50.545Z,25.42
2023-02-06T17:32:20.104Z,26.70
2023-02-06T17:34:48.016Z,26.63
2023-02-06T17:37:15.095Z,28.20
2023-02-06T17:39:42.560Z,32.80
2023-02-06T17:42:09.638Z,31.20
2023-02-06T17:44:37.030Z,31.98
2023-02-06T17:47:04.250Z,30.65
2023-02-06T17:49:31.637Z,29.33
2023-02-06T17:51:58.675Z,30.20
2023-02-06T17:54:30.582Z,33.95
2023-02-06T17:56:57.771Z,33.25
2023-02-06T17:59:27.390Z,34.67
2023-02-06T18:01:57.071Z,38.17
2023-02-06T18:04:24.857Z,35.42
2023-02-06T18:06:51.939Z,36.53
2023-02-06T18:09:19.564Z,40.17
2023-02-06T18:11:46.867Z,42.25
2023-02-06T18:14:14.264Z,109.40
2023-02-06T18:16:41.431Z,56.65
2023-02-06T18:19:09.846Z,50.67
2023-02-06T18:21:36.912Z,52.88
2023-02-06T18:24:05.401Z,53.60
2023-02-06T18:26:32.688Z,53.80
2023-02-06T18:29:04.228Z,53.42
2023-02-06T18:31:33.299Z,55.65
2023-02-06T18:34:03.516Z,57.47
2023-02-06T18:36:30.829Z,55.08
2023-02-06T18:38:58.411Z,53.58
2023-02-06T18:41:27.962Z,44.30
2023-02-06T18:43:55.321Z,41.70
2023-02-06T18:46:22.474Z,42.20
2023-02-06T18:48:53.735Z,53.78
2023-02-06T18:51:21.347Z,75.45
2023-02-06T18:53:51.044Z,82.93
2023-02-06T18:56:20.954Z,115.80
2023-02-06T18:58:48.385Z,130.75
2023-02-06T19:01:22.362Z,147.90
2023-02-06T19:03:53.325Z,147.38
2023-02-06T19:06:25.477Z,145.10
2023-02-06T19:08:56.055Z,148.80
2023-02-06T19:11:23.256Z,122.88
2023-02-06T19:13:50.763Z,143.27
2023-02-06T19:16:20.312Z,142.60
2023-02-06T19:18:51.057Z,140.82
2023-02-06T19:21:22.511Z,133.85
2023-02-06T19:23:57.890Z,130.70
2023-02-06T19:26:25.890Z,132.35
2023-02-06T19:28:56.000Z,127.45
2023-02-06T19:31:25.709Z,112.60
2023-02-06T19:33:55.738Z,105.28
2023-02-06T19:36:24.476Z,109.70
2023-02-06T19:38:55.998Z,118.45
2023-02-06T19:41:25.335Z,116.50
2023-02-06T19:44:00.366Z,118.00
2023-02-06T19:46:27.965Z,121.07
2023-02-06T19:48:56.175Z,118.97
2023-02-06T19:51:26.259Z,122.20
2023-02-06T19:53:55.190Z,122.13
2023-02-06T19:56:27.840Z,121.97
2023-02-06T19:58:56.374Z,120.40
2023-02-06T20:01:28.148Z,134.77
2023-02-06T20:03:56.878Z,139.32
2023-02-06T20:06:23.996Z,135.27
2023-02-06T20:08:51.728Z,120.60
2023-02-06T20:11:22.444Z,116.25
2023-02-06T20:13:52.761Z,109.10
2023-02-06T20:16:24.662Z,107.28
2023-02-06T20:18:52.614Z,113.15
2023-02-06T20:21:22.686Z,118.35
2023-02-06T20:23:52.885Z,105.35
2023-02-06T20:26:24.900Z,94.00
2023-02-06T20:28:57.490Z,89.38
2023-02-06T20:31:24.786Z,84.38
2023-02-06T20:33:52.815Z,97.18
2023-02-06T20:36:23.014Z,101.03
2023-02-06T20:39:00.477Z,111.03
2023-02-06T20:41:31.167Z,117.05
2023-02-06T20:44:00.604Z,119.43
2023-02-06T20:46:29.556Z,116.07
2023-02-06T20:49:00.876Z,111.93
2023-02-06T20:51:28.966Z,125.15
2023-02-06T20:53:56.366Z,126.47
2023-02-06T20:56:25.145Z,121.78
2023-02-06T20:58:52.843Z,121.50
2023-02-06T21:01:24.926Z,126.53
2023-02-06T21:03:58.372Z,117.38
2023-02-06T21:06:25.911Z,113.60
2023-02-06T21:08:53.378Z,108.00
2023-02-06T21:11:22.909Z,108.93
2023-02-06T21:13:50.267Z,106.40
2023-02-06T21:16:17.462Z,107.35
2023-02-06T21:18:45.805Z,110.25
2023-02-06T21:21:14.426Z,117.65
2023-02-06T21:23:46.066Z,119.88
2023-02-06T21:26:13.838Z,123.38
2023-02-06T21:28:41.604Z,122.13
2023-02-06T21:31:23.560Z,140.82
2023-02-06T21:33:52.341Z,180.20
2023-02-06T21:36:21.765Z,178.02
2023-02-06T21:38:49.108Z,159.48
2023-02-06T21:41:18.594Z,154.07
2023-02-06T21:43:48.608Z,158.00
2023-02-06T21:46:15.756Z,157.85
2023-02-06T21:48:43.122Z,151.45
2023-02-06T21:51:15.713Z,141.85
2023-02-06T21:53:46.300Z,136.30
2023-02-06T21:56:25.165Z,131.38
2023-02-06T21:58:52.774Z,154.45
2023-02-06T22:01:24.267Z,162.13
2023-02-06T22:03:52.384Z,135.52
2023-02-06T22:06:20.242Z,163.95
2023-02-06T22:08:52.581Z,168.27
2023-02-06T22:11:24.070Z,172.77
2023-02-06T22:13:59.025Z,176.18
2023-02-06T22:16:26.676Z,179.73
2023-02-06T22:18:54.707Z,148.57
2023-02-06T22:21:25.306Z,135.60
2023-02-06T22:23:55.415Z,161.20
2023-02-06T22:26:22.464Z,136.95
2023-02-06T22:28:50.058Z,147.80
2023-02-06T22:31:23.999Z,143.25
2023-02-06T22:33:51.523Z,146.50
2023-02-06T22:36:24.862Z,141.35
2023-02-06T22:39:04.450Z,146.30
2023-02-06T22:41:31.528Z,135.60
2023-02-06T22:43:59.165Z,146.35
2023-02-06T22:46:34.963Z,142.75
2023-02-06T22:49:03.966Z,136.48
2023-02-06T22:51:33.693Z,134.60
2023-02-06T22:54:01.314Z,130.00
2023-02-06T22:56:31.706Z,121.55
2023-02-06T22:59:03.993Z,123.88
2023-02-06T23:01:36.159Z,117.90
2023-02-06T23:04:05.526Z,121.78
2023-02-06T23:06:34.199Z,124.50
2023-02-06T23:09:03.635Z,124.45
2023-02-06T23:11:30.819Z,115.93
2023-02-06T23:14:00.949Z,116.95
2023-02-06T23:16:29.928Z,119.65
2023-02-06T23:19:01.171Z,124.25
2023-02-06T23:21:28.437Z,130.38
2023-02-06T23:23:56.094Z,133.88
2023-02-06T23:26:23.741Z,133.27
2023-02-06T23:28:55.297Z,140.77
2023-02-06T23:31:22.338Z,143.32
2023-02-06T23:33:52.492Z,129.73
2023-02-06T23:36:21.220Z,137.02
2023-02-06T23:38:48.891Z,135.75
2023-02-06T23:41:20.931Z,136.32
2023-02-06T23:44:03.653Z,137.90
2023-02-06T23:46:33.782Z,124.55
2023-02-06T23:49:01.398Z,123.68
2023-02-06T23:51:28.995Z,123.28
2023-02-06T23:53:58.956Z,121.28
2023-02-06T23:56:28.557Z,119.18
2023-02-06T23:58:59.446Z,120.28
